Luther, Illinois
Current Conditions -  °F | °C
As of 3:15 AM on Wednesday 28 Jan 2015 (Local Time) from KAAA Reporting Station
Clear Clear  
Wind Chill: 21°   Ceiling: Unl
Heat Index: 26°   Visibility: 7mi
Dew Point: 23°   Wind: 5mph
Humidity: 89%   Direction: 130°SE
Pressure: 30.27"   Gusts: NA
Location:  40.1812°N, 89.7163°W
Report Text: KAAA 280915Z AUTO 13004KT 7SM CLR M03/M05 A3027 RMK AO2 T10321048
Loading
Personal Weather Stations






























Interactive Weather Map New forecast layout! Learn more

10-Day Weather Forecast

Advertisements
Track Severe Weather on mobile